Time;durP1;ratioP1;P1;durP2;ratioP2;P2;SDS_P1;SDS_P2;PMS_P1;PMS_P2;Temp;Humidity;BMP_temperature;BMP_pressure;BME280_temperature;BME280_humidity;BME280_pressure;Samples;Min_cycle;Max_cycle;Signal;HPM_P1;HPM_P2
2021/06/20 02:45:45;;;;;;;13.93;8.60;;;22.40;80.50;;;;;;5447729;24;20057;-77
2021/06/20 02:48:11;;;;;;;14.85;8.70;;;22.40;80.50;;;;;;4690791;30;20042;-76
2021/06/20 02:50:37;;;;;;;15.20;7.93;;;22.40;80.90;;;;;;4701000;30;20050;-77
2021/06/20 02:53:03;;;;;;;15.77;8.15;;;22.40;80.80;;;;;;4718109;30;20041;-77
2021/06/20 02:55:28;;;;;;;19.73;8.02;;;22.40;80.80;;;;;;4702771;30;20021;-77
2021/06/20 02:57:54;;;;;;;11.63;8.68;;;22.40;80.80;;;;;;4706006;30;20104;-77
2021/06/20 03:00:20;;;;;;;12.80;7.93;;;22.50;80.80;;;;;;4694824;30;20029;-77
2021/06/20 03:02:46;;;;;;;14.80;8.48;;;22.50;80.60;;;;;;4708678;30;20029;-77
2021/06/20 03:05:12;;;;;;;16.00;8.73;;;22.50;80.80;;;;;;4705658;30;20038;-77
2021/06/20 03:07:38;;;;;;;16.55;7.75;;;22.40;81.00;;;;;;4711695;30;20090;-77
2021/06/20 03:10:05;;;;;;;15.25;8.75;;;22.40;81.00;;;;;;4691464;30;20038;-77
2021/06/20 03:12:31;;;;;;;18.95;7.75;;;22.50;81.20;;;;;;4691430;30;20026;-77
2021/06/20 03:14:56;;;;;;;14.52;7.85;;;22.50;81.20;;;;;;4706938;30;20313;-77
2021/06/20 03:17:22;;;;;;;13.27;7.88;;;22.50;81.10;;;;;;4700902;30;20030;-77
2021/06/20 03:19:49;;;;;;;14.35;8.85;;;22.50;81.20;;;;;;4708680;30;20187;-77
2021/06/20 03:22:15;;;;;;;12.40;9.10;;;22.50;81.60;;;;;;4708329;30;20029;-77
2021/06/20 03:24:44;;;;;;;18.07;9.00;;;22.60;82.00;;;;;;4708455;30;20256;-77
2021/06/20 03:27:10;;;;;;;14.75;8.50;;;22.60;81.80;;;;;;4708618;30;20088;-77
2021/06/20 03:29:36;;;;;;;12.07;8.15;;;22.60;81.80;;;;;;4708158;30;20045;-77
2021/06/20 03:32:03;;;;;;;19.65;8.50;;;22.70;81.70;;;;;;4708062;30;20025;-77
2021/06/20 03:34:31;;;;;;;15.02;7.93;;;22.70;81.50;;;;;;4708268;30;20440;-77
2021/06/20 03:36:57;;;;;;;10.15;8.25;;;22.70;81.30;;;;;;4709417;30;20030;-77
2021/06/20 03:39:22;;;;;;;11.88;8.57;;;22.80;81.50;;;;;;4708273;30;20375;-77
2021/06/20 03:41:48;;;;;;;9.75;7.43;;;22.80;81.40;;;;;;4708285;30;20068;-77
2021/06/20 03:44:14;;;;;;;12.43;7.93;;;22.90;81.10;;;;;;4708146;30;20061;-77
2021/06/20 03:46:40;;;;;;;12.70;8.10;;;22.90;81.50;;;;;;4708950;30;20062;-77
2021/06/20 03:49:06;;;;;;;12.45;7.95;;;22.90;81.80;;;;;;4709379;30;20277;-77
2021/06/20 03:51:32;;;;;;;12.73;8.05;;;23.00;82.00;;;;;;4709410;30;20045;-77
2021/06/20 03:53:59;;;;;;;12.02;8.32;;;23.00;81.70;;;;;;4693819;30;20131;-77
2021/06/20 03:56:25;;;;;;;11.70;7.93;;;23.00;81.40;;;;;;4709108;30;20237;-76
2021/06/20 03:58:50;;;;;;;14.52;8.40;;;23.10;81.20;;;;;;4709410;30;20347;-77
2021/06/20 04:01:16;;;;;;;14.75;7.47;;;23.10;80.90;;;;;;4708380;30;20042;-77
2021/06/20 04:03:42;;;;;;;13.43;8.35;;;23.20;80.70;;;;;;4711405;30;20033;-77
2021/06/20 04:06:08;;;;;;;17.25;8.50;;;23.30;80.20;;;;;;4711470;30;20036;-77
2021/06/20 04:08:33;;;;;;;18.95;8.07;;;23.40;81.40;;;;;;4711299;30;20225;-77
2021/06/20 04:10:59;;;;;;;10.63;7.30;;;23.60;80.50;;;;;;4712619;30;20055;-77
2021/06/20 04:13:25;;;;;;;13.13;7.15;;;23.60;80.50;;;;;;4709970;30;20036;-76
2021/06/20 04:15:51;;;;;;;8.27;7.18;;;23.70;79.60;;;;;;4713761;30;20025;-77
2021/06/20 04:18:17;;;;;;;9.60;7.30;;;23.80;79.80;;;;;;4710221;30;20052;-77
2021/06/20 04:20:43;;;;;;;14.95;8.55;;;24.00;79.70;;;;;;4708417;30;20395;-77
2021/06/20 04:23:09;;;;;;;11.02;7.88;;;24.00;78.70;;;;;;4711318;30;20033;-77
2021/06/20 04:25:35;;;;;;;18.52;8.88;;;24.10;78.00;;;;;;4708510;30;20117;-77
2021/06/20 04:28:01;;;;;;;9.95;7.63;;;24.10;77.40;;;;;;4711287;30;20037;-77
2021/06/20 04:30:27;;;;;;;12.18;7.82;;;24.10;77.40;;;;;;4712418;30;20068;-77
2021/06/20 04:32:53;;;;;;;14.63;7.80;;;24.10;77.40;;;;;;4712160;30;20105;-77
2021/06/20 04:35:20;;;;;;;16.63;7.57;;;24.10;77.10;;;;;;4710901;30;20041;-77
2021/06/20 04:37:47;;;;;;;14.23;7.70;;;24.20;76.90;;;;;;4696692;30;20104;-77
2021/06/20 04:40:20;;;;;;;11.75;7.10;;;24.20;76.50;;;;;;4712310;30;20029;-77
2021/06/20 04:42:54;;;;;;;14.60;8.20;;;24.30;76.20;;;;;;4708056;30;20052;-77
2021/06/20 04:45:21;;;;;;;11.18;7.57;;;24.50;75.70;;;;;;4708899;30;20045;-77
2021/06/20 04:47:46;;;;;;;16.30;8.00;;;24.60;75.30;;;;;;4687149;30;20085;-77
2021/06/20 04:50:12;;;;;;;9.48;7.38;;;24.70;74.90;;;;;;4704920;30;20041;-77
2021/06/20 04:52:42;;;;;;;15.65;8.18;;;24.90;74.60;;;;;;4696379;30;20068;-77
2021/06/20 04:55:12;;;;;;;19.17;8.15;;;25.00;73.90;;;;;;4710626;30;20029;-77
2021/06/20 04:57:38;;;;;;;9.90;7.13;;;25.10;73.50;;;;;;4710194;30;20064;-77
2021/06/20 05:00:06;;;;;;;9.25;6.80;;;25.20;73.50;;;;;;4707734;30;20040;-77
2021/06/20 05:02:32;;;;;;;10.38;7.13;;;25.40;73.40;;;;;;4707931;30;20029;-77
2021/06/20 05:04:58;;;;;;;10.53;7.30;;;25.50;73.20;;;;;;4711138;30;20225;-77
2021/06/20 05:07:23;;;;;;;12.65;7.63;;;25.60;72.70;;;;;;4710879;30;20098;-78
2021/06/20 05:09:49;;;;;;;15.52;7.40;;;25.60;72.80;;;;;;4710893;30;20034;-79
2021/06/20 05:12:16;;;;;;;11.70;7.57;;;25.50;72.60;;;;;;4718444;30;20038;-77
2021/06/20 05:14:44;;;;;;;18.35;7.50;;;25.60;73.60;;;;;;4720362;30;20127;-77
2021/06/20 05:17:17;;;;;;;18.60;7.72;;;26.20;73.00;;;;;;4714632;30;20041;-77
2021/06/20 05:19:43;;;;;;;12.45;7.82;;;27.30;69.80;;;;;;4692299;30;20089;-77
2021/06/20 05:22:10;;;;;;;9.77;5.97;;;28.10;66.00;;;;;;4693127;30;20037;-77
2021/06/20 05:24:37;;;;;;;9.50;6.10;;;28.70;64.60;;;;;;4708009;30;20322;-77
2021/06/20 05:27:03;;;;;;;10.07;5.63;;;29.60;62.50;;;;;;4704538;30;20033;-77
2021/06/20 05:29:29;;;;;;;10.73;6.35;;;30.20;59.60;;;;;;4693625;30;20077;-78
2021/06/20 05:31:55;;;;;;;9.57;6.80;;;30.50;59.10;;;;;;4697138;30;20026;-77
2021/06/20 05:34:21;;;;;;;11.50;5.53;;;31.00;57.50;;;;;;4693420;30;20037;-77
2021/06/20 05:36:48;;;;;;;13.33;6.13;;;31.40;56.50;;;;;;4704762;30;20221;-77
2021/06/20 05:39:14;;;;;;;11.38;5.88;;;31.50;55.30;;;;;;4704627;30;20037;-77
2021/06/20 05:41:40;;;;;;;11.52;6.63;;;31.30;55.60;;;;;;4707485;30;20029;-77
2021/06/20 05:44:06;;;;;;;14.03;6.20;;;31.30;55.60;;;;;;4693207;30;20052;-77
2021/06/20 05:46:33;;;;;;;16.73;6.80;;;31.60;55.50;;;;;;4708724;30;20045;-77
2021/06/20 05:48:58;;;;;;;6.80;5.47;;;31.80;55.00;;;;;;4725016;30;20038;-77
2021/06/20 05:51:24;;;;;;;10.17;5.60;;;31.90;54.50;;;;;;4696092;30;20367;-77
2021/06/20 05:53:50;;;;;;;11.10;6.50;;;32.10;54.30;;;;;;4711896;30;20242;-77
2021/06/20 05:56:16;;;;;;;14.82;6.50;;;32.30;54.10;;;;;;4710686;30;20017;-77
2021/06/20 05:58:42;;;;;;;9.53;6.80;;;32.50;53.70;;;;;;4695630;30;20285;-77
2021/06/20 06:01:08;;;;;;;7.23;6.50;;;32.20;53.50;;;;;;4710878;30;20321;-77
2021/06/20 06:03:34;;;;;;;10.53;6.63;;;32.00;54.80;;;;;;4710307;30;20125;-77
2021/06/20 06:06:01;;;;;;;10.23;6.20;;;32.10;55.20;;;;;;4695102;30;20109;-77
2021/06/20 06:08:27;;;;;;;;;;;32.20;54.80;;;;;;4709615;30;20050;-77
2021/06/20 06:10:52;;;;;;;8.13;6.40;;;32.10;55.30;;;;;;4694713;30;19911;-77
2021/06/20 06:13:18;;;;;;;15.80;7.83;;;32.10;55.60;;;;;;4708139;30;20450;-77
2021/06/20 06:15:44;;;;;;;25.10;7.10;;;32.10;55.90;;;;;;4689462;30;20042;-77
2021/06/20 06:18:10;;;;;;;16.43;7.33;;;32.00;55.60;;;;;;4704714;30;20337;-80
2021/06/20 06:20:36;;;;;;;11.73;7.00;;;31.90;56.20;;;;;;4709402;30;20137;-75
2021/06/20 06:23:02;;;;;;;10.47;7.10;;;31.90;56.60;;;;;;4709840;30;20026;-76
2021/06/20 06:25:28;;;;;;;9.25;7.35;;;31.90;55.60;;;;;;4705591;30;20486;-76
2021/06/20 06:27:54;;;;;;;14.10;7.20;;;31.80;56.70;;;;;;4702857;30;20108;-75
2021/06/20 06:30:21;;;;;;;10.93;6.50;;;31.80;56.90;;;;;;4707528;30;20032;-77
2021/06/20 06:32:47;;;;;;;10.05;6.90;;;31.80;56.00;;;;;;4693742;30;20025;-77
2021/06/20 06:35:15;;;;;;;16.45;7.25;;;31.60;56.00;;;;;;4702785;30;20073;-77
2021/06/20 06:37:40;;;;;;;9.95;7.40;;;31.60;57.30;;;;;;4704171;30;20105;-77
2021/06/20 06:40:08;;;;;;;8.60;7.70;;;31.60;57.50;;;;;;4699576;30;20025;-76
2021/06/20 06:42:34;;;;;;;11.23;7.72;;;31.50;57.00;;;;;;4707682;30;20061;-77
2021/06/20 06:45:00;;;;;;;11.10;7.53;;;31.60;56.50;;;;;;4703192;30;20325;-77
2021/06/20 06:47:27;;;;;;;11.17;7.00;;;31.40;57.30;;;;;;4694430;30;20042;-78
2021/06/20 06:49:53;;;;;;;;;;;31.30;57.90;;;;;;4706381;30;20284;-78
2021/06/20 06:52:19;;;;;;;10.93;6.97;;;31.20;58.50;;;;;;4706625;30;19939;-78
2021/06/20 06:54:51;;;;;;;14.13;7.90;;;31.20;58.90;;;;;;4692351;30;20237;-78
2021/06/20 06:57:21;;;;;;;10.80;6.82;;;31.20;59.30;;;;;;4709418;30;20100;-79
2021/06/20 06:59:47;;;;;;;14.20;6.65;;;31.30;58.30;;;;;;4712604;30;20029;-78
2021/06/20 07:02:14;;;;;;;20.58;7.20;;;31.20;58.30;;;;;;4713630;30;20341;-78
2021/06/20 07:04:40;;;;;;;12.02;7.35;;;31.20;58.20;;;;;;4709592;30;20030;-78
2021/06/20 07:07:06;;;;;;;9.87;6.80;;;31.30;58.80;;;;;;4711901;30;20029;-79
2021/06/20 07:09:32;;;;;;;9.23;7.17;;;31.30;58.90;;;;;;4696076;30;20101;-77
2021/06/20 07:11:58;;;;;;;11.70;6.87;;;31.30;58.10;;;;;;4710533;30;20045;-78
2021/06/20 07:14:24;;;;;;;9.05;7.03;;;31.20;58.10;;;;;;4705330;30;20042;-78
2021/06/20 07:16:50;;;;;;;15.87;7.53;;;31.00;58.10;;;;;;4700196;30;20089;-78
2021/06/20 07:19:16;;;;;;;15.07;7.57;;;31.00;58.50;;;;;;4708753;30;20045;-78
2021/06/20 07:21:41;;;;;;;11.37;6.73;;;31.10;59.10;;;;;;4709076;30;20029;-77
2021/06/20 07:24:08;;;;;;;7.90;6.47;;;31.30;58.90;;;;;;4704982;30;20038;-77
2021/06/20 07:26:33;;;;;;;10.55;7.05;;;31.50;58.80;;;;;;4709474;30;20018;-78
2021/06/20 07:29:00;;;;;;;8.23;6.30;;;31.80;58.80;;;;;;4709157;30;20379;-78
2021/06/20 07:31:26;;;;;;;10.88;5.90;;;31.90;57.60;;;;;;4694425;30;20030;-78
2021/06/20 07:33:52;;;;;;;17.97;7.23;;;32.00;57.20;;;;;;4708295;30;20236;-77
2021/06/20 07:36:18;;;;;;;12.90;5.93;;;31.90;57.00;;;;;;4700703;30;20029;-77
2021/06/20 07:38:45;;;;;;;13.10;6.17;;;31.90;56.70;;;;;;4708281;30;20033;-78
2021/06/20 07:41:12;;;;;;;10.20;5.65;;;32.00;57.20;;;;;;4698709;30;20268;-78
2021/06/20 07:43:38;;;;;;;9.20;6.47;;;32.10;57.00;;;;;;4711967;30;20033;-77
2021/06/20 07:46:04;;;;;;;11.20;6.03;;;32.30;57.00;;;;;;4708485;30;20069;-78
2021/06/20 07:48:31;;;;;;;9.88;5.43;;;32.50;55.90;;;;;;4713313;30;20033;-78
2021/06/20 07:50:57;;;;;;;13.25;5.28;;;32.40;57.00;;;;;;4694452;30;20029;-77
2021/06/20 07:53:23;;;;;;;8.90;5.93;;;32.40;56.60;;;;;;4683702;30;20105;-79
2021/06/20 07:55:50;;;;;;;13.82;5.90;;;32.40;56.30;;;;;;4697343;30;20411;-79
2021/06/20 07:58:15;;;;;;;;;;;32.50;55.10;;;;;;4710010;30;20335;-79
2021/06/20 08:00:41;;;;;;;8.55;5.65;;;32.60;56.90;;;;;;4695360;30;19946;-79
2021/06/20 08:03:08;;;;;;;9.13;5.82;;;32.70;54.90;;;;;;4703551;30;20376;-78
2021/06/20 08:05:34;;;;;;;11.35;6.03;;;32.70;53.80;;;;;;4710444;30;20048;-79
2021/06/20 08:08:00;;;;;;;10.03;5.60;;;32.60;54.40;;;;;;4718711;30;20061;-79
2021/06/20 08:10:26;;;;;;;7.57;5.78;;;32.70;55.20;;;;;;4709430;30;20048;-78
2021/06/20 08:12:52;;;;;;;9.70;5.57;;;32.80;54.70;;;;;;4695175;30;20030;-80
2021/06/20 08:15:18;;;;;;;12.37;5.33;;;32.90;53.70;;;;;;4717649;30;20034;-80
2021/06/20 08:17:44;;;;;;;9.00;5.47;;;32.80;53.40;;;;;;4697666;30;20108;-79
2021/06/20 08:20:11;;;;;;;12.90;5.97;;;32.70;53.50;;;;;;4697074;30;20053;-79
2021/06/20 08:22:38;;;;;;;11.80;6.10;;;32.80;53.30;;;;;;4697401;30;20510;-79
2021/06/20 08:25:09;;;;;;;8.60;6.10;;;32.80;54.20;;;;;;4719431;30;20048;-78
2021/06/20 08:27:35;;;;;;;7.35;5.50;;;33.00;54.10;;;;;;4725715;30;20034;-80
2021/06/20 08:30:04;;;;;;;12.00;6.38;;;33.00;53.30;;;;;;4717463;30;20029;-79
2021/06/20 08:32:30;;;;;;;9.43;5.68;;;33.10;53.00;;;;;;4708237;30;20030;-79
2021/06/20 08:35:00;;;;;;;8.70;5.60;;;33.10;53.10;;;;;;4690799;30;20125;-77
2021/06/20 08:37:27;;;;;;;8.88;6.15;;;33.00;53.30;;;;;;4704782;30;20033;-78
2021/06/20 08:39:53;;;;;;;7.82;6.13;;;33.10;52.60;;;;;;4698798;30;20049;-79
2021/06/20 08:42:19;;;;;;;9.35;5.63;;;33.20;52.90;;;;;;4726087;30;20079;-79
2021/06/20 08:44:45;;;;;;;7.57;5.80;;;33.30;52.30;;;;;;4711670;30;20037;-79
2021/06/20 08:47:13;;;;;;;7.18;5.97;;;33.20;53.20;;;;;;4701323;30;20106;-79
2021/06/20 08:49:39;;;;;;;11.80;6.45;;;33.40;52.90;;;;;;4694225;30;20056;-79
2021/06/20 08:52:05;;;;;;;7.70;5.72;;;33.60;51.70;;;;;;4715407;30;20265;-79
2021/06/20 08:54:33;;;;;;;9.70;5.93;;;33.70;51.60;;;;;;4715655;30;20096;-79
2021/06/20 08:57:00;;;;;;;10.10;5.57;;;33.80;51.40;;;;;;4698098;30;20033;-79
2021/06/20 08:59:26;;;;;;;10.70;5.80;;;33.80;50.80;;;;;;4709273;30;20040;-79
2021/06/20 09:01:53;;;;;;;12.80;6.13;;;33.70;51.00;;;;;;4704907;30;20030;-81
2021/06/20 09:04:27;;;;;;;;;;;33.70;51.20;;;;;;4717179;30;20041;-81
2021/06/20 09:06:54;;;;;;;15.85;6.00;;;33.60;50.90;;;;;;4710592;30;19917;-79
2021/06/20 09:09:32;;;;;;;10.60;6.05;;;33.70;50.70;;;;;;4711882;30;20038;-78
2021/06/20 09:12:12;;;;;;;11.43;5.97;;;34.00;51.30;;;;;;4710748;30;20032;-78
2021/06/20 09:14:47;;;;;;;9.77;6.13;;;34.20;50.20;;;;;;4716150;30;20041;-78
2021/06/20 09:17:27;;;;;;;8.00;5.85;;;34.40;49.00;;;;;;4714707;30;20025;-78
2021/06/20 09:19:58;;;;;;;10.02;6.03;;;34.50;49.00;;;;;;4706437;30;20037;-78
2021/06/20 09:22:24;;;;;;;6.97;5.28;;;34.40;48.70;;;;;;4707439;30;20030;-78
2021/06/20 09:25:09;;;;;;;6.82;5.65;;;34.40;49.80;;;;;;4711260;30;20112;-78
2021/06/20 09:27:35;;;;;;;7.95;5.40;;;34.50;47.90;;;;;;4697659;30;20100;-78
2021/06/20 09:30:29;;;;;;;5.90;5.03;;;34.60;49.50;;;;;;4712538;30;20084;-78
2021/06/20 09:33:07;;;;;;;7.90;6.32;;;34.80;47.90;;;;;;4696276;30;20069;-78
2021/06/20 09:35:53;;;;;;;8.55;6.43;;;34.70;47.30;;;;;;4679330;30;20192;-78
2021/06/20 09:38:23;;;;;;;7.40;6.28;;;34.80;47.00;;;;;;4691222;30;20046;-78
2021/06/20 09:40:59;;;;;;;10.10;5.18;;;34.70;48.00;;;;;;4686076;30;20041;-78
2021/06/20 09:43:25;;;;;;;8.98;4.70;;;34.70;47.50;;;;;;4710277;30;20064;-78
2021/06/20 09:45:52;;;;;;;11.27;5.00;;;34.80;47.80;;;;;;4681500;30;20138;-80
2021/06/20 09:48:30;;;;;;;7.90;5.40;;;35.00;48.50;;;;;;4685561;30;20269;-78
2021/06/20 09:50:59;;;;;;;7.97;5.15;;;35.00;47.90;;;;;;4712822;30;20041;-79
2021/06/20 09:53:51;;;;;;;8.25;4.50;;;35.00;46.90;;;;;;4696973;30;20260;-78
2021/06/20 09:56:27;;;;;;;9.93;5.82;;;35.00;45.70;;;;;;4609865;31;20363;-78
2021/06/20 09:59:07;;;;;;;8.43;5.05;;;35.10;45.30;;;;;;4608515;31;20044;-79
2021/06/20 10:01:35;;;;;;;6.55;5.00;;;35.20;46.10;;;;;;4607482;31;20058;-80
2021/06/20 10:04:04;;;;;;;8.02;4.95;;;35.30;45.40;;;;;;4609080;31;20052;-79
2021/06/20 10:06:30;;;;;;;6.75;4.50;;;35.30;45.80;;;;;;4595450;31;20354;-79
2021/06/20 10:08:56;;;;;;;5.90;4.10;;;35.40;45.70;;;;;;4593524;31;20040;-80
2021/06/20 10:11:23;;;;;;;6.85;4.57;;;35.60;45.40;;;;;;4599123;31;20047;-80
2021/06/20 10:13:49;;;;;;;;;;;35.80;45.20;;;;;;4613939;31;20043;-79
2021/06/20 10:16:23;;;;;;;6.68;4.93;;;35.80;44.90;;;;;;4609171;31;20028;-79
2021/06/20 10:19:04;;;;;;;12.02;4.90;;;35.80;43.50;;;;;;4612752;31;20039;-79
2021/06/20 10:21:34;;;;;;;7.00;4.32;;;35.80;44.30;;;;;;4595118;31;20094;-77
2021/06/20 10:24:12;;;;;;;6.00;4.28;;;35.70;44.10;;;;;;4623301;31;20127;-79
2021/06/20 10:26:41;;;;;;;6.05;4.68;;;35.70;45.60;;;;;;4604763;31;20171;-79
2021/06/20 10:29:21;;;;;;;8.75;4.38;;;35.70;44.70;;;;;;4619640;31;20032;-78
2021/06/20 10:31:48;;;;;;;4.93;4.35;;;35.80;44.80;;;;;;4611258;31;20048;-79
2021/06/20 10:34:34;;;;;;;8.98;4.38;;;35.60;43.50;;;;;;4700150;30;20109;-79
2021/06/20 10:37:04;;;;;;;;;;;35.50;43.70;;;;;;4710479;30;20046;-79
2021/06/20 10:39:30;;;;;;;6.47;4.47;;;35.50;44.70;;;;;;4696542;30;19993;-79
2021/06/20 10:42:10;;;;;;;6.17;4.23;;;35.60;45.20;;;;;;4710329;30;20337;-79
2021/06/20 10:44:41;;;;;;;12.02;5.93;;;35.70;43.80;;;;;;4708116;30;20034;-79
2021/06/20 10:47:08;;;;;;;10.77;5.82;;;35.80;43.60;;;;;;4705064;30;20061;-79
2021/06/20 10:49:33;;;;;;;6.93;4.82;;;35.80;42.10;;;;;;4708507;30;20045;-79
2021/06/20 10:51:59;;;;;;;9.13;5.47;;;35.90;44.00;;;;;;4709492;30;20060;-79
2021/06/20 10:54:29;;;;;;;10.13;4.28;;;36.00;42.50;;;;;;4710989;30;20241;-79
2021/06/20 10:57:00;;;;;;;9.63;4.68;;;36.10;42.50;;;;;;4708520;30;20093;-80
2021/06/20 10:59:26;;;;;;;9.25;5.10;;;36.10;42.70;;;;;;4708800;30;20210;-79
2021/06/20 11:01:52;;;;;;;7.88;4.80;;;36.10;42.00;;;;;;4713268;30;20025;-79
2021/06/20 11:04:18;;;;;;;7.88;4.10;;;36.10;41.90;;;;;;4709887;30;20266;-78
2021/06/20 11:06:55;;;;;;;8.93;4.65;;;36.10;41.60;;;;;;4711685;30;20057;-79
2021/06/20 11:09:22;;;;;;;9.38;4.10;;;36.10;42.50;;;;;;4717545;30;20049;-79
2021/06/20 11:11:49;;;;;;;7.30;4.15;;;36.20;41.10;;;;;;4692627;30;20305;-79
2021/06/20 11:14:15;;;;;;;8.43;4.32;;;36.00;42.20;;;;;;4706662;30;20284;-79
2021/06/20 11:16:44;;;;;;;8.53;4.00;;;36.00;41.00;;;;;;4715679;30;20037;-79
2021/06/20 11:19:25;;;;;;;6.15;4.40;;;36.10;41.50;;;;;;4712536;30;20040;-79
2021/06/20 11:22:18;;;;;;;5.88;4.53;;;36.20;40.60;;;;;;4712852;30;20109;-79
2021/06/20 11:24:48;;;;;;;11.48;4.70;;;36.20;41.50;;;;;;4698225;30;20049;-79
2021/06/20 11:27:25;;;;;;;12.13;4.13;;;36.20;40.90;;;;;;4697280;30;20056;-79
2021/06/20 11:29:57;;;;;;;6.80;4.53;;;36.20;41.20;;;;;;4698610;30;20211;-79
2021/06/20 11:32:34;;;;;;;9.82;4.85;;;36.20;41.60;;;;;;4700157;30;20032;-79
2021/06/20 11:35:05;;;;;;;9.00;4.65;;;36.20;42.30;;;;;;4706208;30;20045;-79
2021/06/20 11:37:36;;;;;;;6.43;3.97;;;36.40;42.00;;;;;;4693963;30;20132;-80
2021/06/20 11:40:09;;;;;;;5.53;3.70;;;36.40;40.50;;;;;;4691742;30;20041;-79
2021/06/20 11:42:37;;;;;;;5.22;3.50;;;36.30;40.20;;;;;;4695625;30;20068;-79
2021/06/20 11:45:07;;;;;;;6.80;3.63;;;36.40;40.00;;;;;;4695403;30;20045;-79
2021/06/20 11:47:37;;;;;;;4.25;3.88;;;36.50;39.70;;;;;;4694961;30;20242;-79
2021/06/20 11:50:31;;;;;;;7.45;4.28;;;36.70;42.40;;;;;;4692865;30;20029;-79
2021/06/20 11:53:01;;;;;;;5.82;3.47;;;36.90;40.10;;;;;;4659969;30;20043;-79
2021/06/20 11:55:33;;;;;;;8.20;3.80;;;36.90;39.60;;;;;;4647194;30;20043;-79
2021/06/20 11:58:09;;;;;;;5.10;3.42;;;36.90;39.40;;;;;;4633846;30;20057;-79
2021/06/20 12:00:37;;;;;;;6.82;4.00;;;37.00;38.90;;;;;;4635421;30;20051;-79
2021/06/20 12:03:07;;;;;;;5.38;4.03;;;37.00;38.10;;;;;;4673522;30;20088;-79
2021/06/20 12:05:35;;;;;;;11.77;4.35;;;36.90;38.10;;;;;;4674469;30;20080;-79
2021/06/20 12:08:05;;;;;;;9.60;3.35;;;36.80;37.70;;;;;;4660469;30;20097;-79
2021/06/20 12:10:33;;;;;;;4.30;3.90;;;36.70;38.70;;;;;;4657558;30;20050;-79
2021/06/20 12:12:59;;;;;;;5.30;3.70;;;36.90;39.50;;;;;;4643566;30;20062;-78
2021/06/20 12:15:25;;;;;;;5.50;3.63;;;37.00;38.10;;;;;;4628878;30;20133;-78
2021/06/20 12:17:51;;;;;;;8.85;4.47;;;37.00;38.30;;;;;;4656737;30;20082;-78
2021/06/20 12:20:43;;;;;;;5.60;4.85;;;36.90;38.50;;;;;;4673454;30;20038;-79
2021/06/20 12:23:21;;;;;;;7.75;4.70;;;36.80;39.20;;;;;;4642379;30;20158;-78
2021/06/20 12:25:48;;;;;;;8.70;3.95;;;36.80;38.00;;;;;;4677821;30;20115;-80
2021/06/20 12:28:16;;;;;;;5.15;4.10;;;36.80;40.30;;;;;;4678509;30;20038;-79
2021/06/20 12:30:44;;;;;;;5.20;4.18;;;37.10;40.60;;;;;;4713603;30;20041;-80
2021/06/20 12:33:14;;;;;;;5.88;4.00;;;37.30;39.10;;;;;;4715412;30;20117;-79
2021/06/20 12:35:43;;;;;;;11.15;4.38;;;37.30;40.60;;;;;;4712781;30;20044;-80
2021/06/20 12:38:24;;;;;;;5.32;3.42;;;37.30;37.40;;;;;;4698243;30;20033;-80
2021/06/20 12:40:50;;;;;;;6.78;3.83;;;37.30;38.20;;;;;;4713876;30;20233;-80
2021/06/20 12:43:22;;;;;;;8.05;3.55;;;37.20;37.40;;;;;;4710973;30;20034;-79
2021/06/20 12:46:07;;;;;;;3.83;3.53;;;37.20;38.40;;;;;;4711929;30;20116;-80
2021/06/20 12:48:41;;;;;;;8.75;3.75;;;37.10;38.60;;;;;;4707968;30;20025;-79
2021/06/20 12:51:10;;;;;;;4.78;3.42;;;37.00;38.40;;;;;;4712603;30;20030;-79
2021/06/20 12:53:40;;;;;;;5.97;4.22;;;37.10;40.30;;;;;;4712580;30;20063;-80
2021/06/20 12:56:08;;;;;;;7.55;3.38;;;37.30;40.60;;;;;;4713419;30;20038;-79
2021/06/20 12:58:34;;;;;;;7.95;3.97;;;37.40;37.60;;;;;;4703069;30;20045;-77
2021/06/20 13:01:06;;;;;;;;;;;37.40;37.10;;;;;;4712421;30;20025;-78
2021/06/20 13:03:34;;;;;;;7.40;3.95;;;37.40;37.50;;;;;;4709079;30;19911;-78
2021/06/20 13:06:10;;;;;;;4.10;3.30;;;37.30;38.60;;;;;;4714636;30;20034;-78
2021/06/20 13:08:36;;;;;;;11.40;4.30;;;37.40;39.30;;;;;;4713971;30;20026;-78
2021/06/20 13:11:03;;;;;;;8.07;4.07;;;37.60;38.00;;;;;;4712252;30;20100;-80
2021/06/20 13:13:29;;;;;;;6.65;4.47;;;37.30;39.30;;;;;;4703049;30;20034;-78
2021/06/20 13:15:56;;;;;;;6.22;4.10;;;37.10;39.20;;;;;;4703121;30;20049;-78
2021/06/20 13:18:22;;;;;;;7.68;4.45;;;36.90;38.20;;;;;;4717587;30;20305;-78
2021/06/20 13:20:48;;;;;;;;;;;36.70;38.50;;;;;;4716186;30;20034;-79
2021/06/20 13:23:13;;;;;;;;;;;36.70;40.00;;;;;;4700981;30;19907;-78
2021/06/20 13:25:40;;;;;;;4.80;3.97;;;36.50;40.10;;;;;;4700412;30;19986;-78
2021/06/20 13:28:07;;;;;;;7.72;3.80;;;36.50;40.10;;;;;;4707648;30;20296;-78
2021/06/20 13:30:34;;;;;;;6.70;4.13;;;36.20;39.60;;;;;;4709598;30;20033;-78
2021/06/20 13:33:00;;;;;;;15.20;4.15;;;36.00;39.30;;;;;;4707426;30;20041;-78
2021/06/20 13:35:27;;;;;;;5.28;4.43;;;36.00;40.20;;;;;;4709453;30;20038;-78
2021/06/20 13:37:53;;;;;;;6.32;4.15;;;36.00;43.10;;;;;;4713766;30;20041;-78
2021/06/20 13:40:21;;;;;;;6.45;4.28;;;36.00;40.10;;;;;;4713293;30;20033;-78
2021/06/20 13:42:48;;;;;;;5.45;4.30;;;36.00;40.80;;;;;;4696372;30;20040;-78
2021/06/20 13:45:18;;;;;;;7.18;4.10;;;36.10;39.70;;;;;;4712049;30;20202;-78
2021/06/20 13:47:48;;;;;;;6.18;4.90;;;36.10;39.40;;;;;;4710919;30;20042;-78
2021/06/20 13:50:15;;;;;;;8.07;4.35;;;36.10;40.20;;;;;;4712168;30;20317;-78
2021/06/20 13:52:41;;;;;;;;;;;36.20;40.10;;;;;;4725724;30;20034;-78
2021/06/20 13:55:09;;;;;;;10.52;4.22;;;36.40;40.20;;;;;;4701335;30;19911;-78
2021/06/20 13:57:37;;;;;;;5.28;4.60;;;36.40;40.10;;;;;;4693110;30;20108;-79
2021/06/20 14:00:08;;;;;;;4.97;3.90;;;36.40;41.50;;;;;;4693801;30;20372;-78
2021/06/20 14:02:35;;;;;;;12.65;4.55;;;36.40;39.20;;;;;;4711921;30;20029;-79
2021/06/20 14:05:02;;;;;;;10.27;4.45;;;36.20;41.40;;;;;;4709441;30;20045;-78
2021/06/20 14:07:28;;;;;;;5.03;4.45;;;36.30;40.30;;;;;;4701306;30;20301;-78
2021/06/20 14:09:54;;;;;;;7.72;4.60;;;36.30;40.10;;;;;;4699828;30;20061;-78
2021/06/20 14:12:21;;;;;;;5.43;4.70;;;36.20;41.50;;;;;;4703300;30;20057;-77
2021/06/20 14:14:47;;;;;;;6.55;4.38;;;36.20;40.50;;;;;;4706447;30;20044;-78
2021/06/20 14:17:12;;;;;;;7.27;4.90;;;36.10;40.00;;;;;;4708705;30;20109;-78
2021/06/20 14:19:38;;;;;;;8.90;4.40;;;36.10;40.30;;;;;;4710499;30;20086;-78
2021/06/20 14:22:04;;;;;;;11.55;5.00;;;36.00;40.50;;;;;;4711121;30;20588;-78
2021/06/20 14:24:30;;;;;;;8.33;5.07;;;35.90;41.40;;;;;;4695825;30;20112;-78
2021/06/20 14:26:56;;;;;;;7.57;4.87;;;35.90;41.10;;;;;;4703189;30;20048;-78
2021/06/20 14:29:22;;;;;;;6.37;4.27;;;35.80;40.60;;;;;;4694920;30;20034;-78
2021/06/20 14:31:47;;;;;;;8.10;4.80;;;35.80;42.90;;;;;;4703440;30;20029;-78
2021/06/20 14:34:13;;;;;;;8.93;5.47;;;35.90;41.30;;;;;;4707065;30;20242;-79
2021/06/20 14:36:39;;;;;;;10.20;5.10;;;35.90;40.90;;;;;;4702464;30;20392;-78
2021/06/20 14:39:05;;;;;;;10.30;4.70;;;35.70;40.90;;;;;;4709343;30;20288;-78
2021/06/20 14:41:31;;;;;;;9.32;4.95;;;35.60;42.30;;;;;;4702842;30;20227;-79
2021/06/20 14:43:57;;;;;;;5.20;4.70;;;35.60;42.40;;;;;;4707460;30;20034;-78
2021/06/20 14:46:23;;;;;;;9.50;5.27;;;35.60;42.60;;;;;;4706661;30;20048;-79
2021/06/20 14:48:49;;;;;;;7.53;4.97;;;35.70;42.40;;;;;;4708135;30;20033;-79
2021/06/20 14:51:14;;;;;;;10.30;5.20;;;35.70;42.30;;;;;;4695353;30;20569;-78
2021/06/20 14:53:40;;;;;;;7.67;5.00;;;35.80;42.10;;;;;;4706653;30;20033;-78
2021/06/20 14:56:06;;;;;;;9.23;5.13;;;35.90;41.80;;;;;;4693496;30;20104;-78
2021/06/20 14:58:32;;;;;;;10.07;4.90;;;36.00;41.20;;;;;;4682156;30;20584;-78
2021/06/20 15:00:58;;;;;;;6.20;4.70;;;36.00;42.40;;;;;;4705795;30;20117;-78
2021/06/20 15:03:24;;;;;;;9.53;5.30;;;36.10;41.50;;;;;;4719689;30;20317;-78
2021/06/20 15:05:50;;;;;;;7.28;5.03;;;36.20;42.50;;;;;;4694271;30;20049;-78
2021/06/20 15:08:16;;;;;;;7.80;5.05;;;36.50;41.90;;;;;;4693989;30;20097;-78
2021/06/20 15:10:42;;;;;;;7.20;5.23;;;36.70;40.80;;;;;;4706102;30;20120;-77
2021/06/20 15:13:08;;;;;;;8.20;5.30;;;36.80;41.60;;;;;;4708867;30;20265;-78
2021/06/20 15:15:37;;;;;;;8.18;5.13;;;36.80;40.50;;;;;;4705754;30;20053;-78
2021/06/20 15:18:03;;;;;;;8.43;5.18;;;36.90;40.40;;;;;;4711994;30;20096;-78
2021/06/20 15:20:29;;;;;;;9.43;4.63;;;37.00;40.70;;;;;;4714335;30;20056;-78
2021/06/20 15:22:55;;;;;;;6.40;4.55;;;37.00;39.80;;;;;;4707662;30;20343;-78
2021/06/20 15:25:27;;;;;;;6.47;5.35;;;37.00;39.50;;;;;;4701331;30;20068;-78
2021/06/20 15:27:55;;;;;;;11.18;4.72;;;36.90;39.70;;;;;;4709809;30;20097;-78
2021/06/20 15:30:21;;;;;;;10.98;4.97;;;36.90;39.40;;;;;;4696614;30;20068;-76
2021/06/20 15:32:51;;;;;;;6.15;4.90;;;36.90;39.50;;;;;;4700626;30;20080;-78
2021/06/20 15:35:19;;;;;;;5.53;3.92;;;36.70;40.40;;;;;;4718058;30;20065;-76